Time;durP1;ratioP1;P1;durP2;ratioP2;P2;SDS_P1;SDS_P2;PMS_P1;PMS_P2;Temp;Humidity;BMP_temperature;BMP_pressure;BME280_temperature;BME280_humidity;BME280_pressure;Samples;Min_cycle;Max_cycle;Signal;HPM_P1;HPM_P2
2022/12/31 08:22:13;;;;;;;1.57;1.30;;;13.10;99.90;;;;;;5144635;27;20565;-84
2022/12/31 08:25:17;;;;;;;2.57;1.50;;;13.10;99.90;;;;;;5137540;27;20285;-85
2022/12/31 08:27:50;;;;;;;1.10;1.00;;;13.20;99.90;;;;;;5120337;28;20225;-83
2022/12/31 08:30:18;;;;;;;1.50;1.37;;;13.30;99.90;;;;;;5134926;28;20537;-83
2022/12/31 08:33:05;;;;;;;1.47;1.00;;;13.70;99.90;;;;;;5137265;27;20188;-82
2022/12/31 08:35:59;;;;;;;1.87;0.90;;;13.90;99.90;;;;;;5137033;27;20167;-83
2022/12/31 08:38:29;;;;;;;1.10;1.00;;;13.90;99.90;;;;;;5136759;28;20181;-83
2022/12/31 08:41:13;;;;;;;1.30;0.90;;;13.80;99.90;;;;;;5137409;27;20164;-84
2022/12/31 08:43:52;;;;;;;2.00;1.10;;;13.70;99.90;;;;;;5139027;27;20178;-85
2022/12/31 08:46:30;;;;;;;1.77;0.90;;;13.60;99.90;;;;;;5143010;28;20155;-84
2022/12/31 08:48:56;;;;;;;1.40;1.10;;;13.70;99.90;;;;;;5143910;27;20603;-83
2022/12/31 08:51:23;;;;;;;0.90;0.80;;;13.70;99.90;;;;;;5138625;27;20163;-83
2022/12/31 08:53:50;;;;;;;1.40;1.00;;;13.80;99.90;;;;;;5137235;27;20216;-82
2022/12/31 08:56:38;;;;;;;3.43;1.33;;;13.90;99.90;;;;;;5135536;28;20171;-82
2022/12/31 08:59:25;;;;;;;1.83;1.43;;;14.00;99.90;;;;;;5136965;27;20191;-82
2022/12/31 09:02:23;;;;;;;1.97;1.20;;;14.10;99.90;;;;;;5135192;28;20640;-83
2022/12/31 09:04:54;;;;;;;2.37;1.73;;;14.20;99.90;;;;;;5136551;27;20696;-83
2022/12/31 09:07:42;;;;;;;2.17;1.53;;;14.40;99.90;;;;;;5135317;28;20266;-84
2022/12/31 09:10:30;;;;;;;2.63;1.43;;;14.60;99.90;;;;;;5135850;28;20195;-83
2022/12/31 09:13:11;;;;;;;2.20;1.30;;;14.50;99.90;;;;;;5134475;28;20236;-84
2022/12/31 09:15:56;;;;;;;4.67;2.00;;;14.50;99.90;;;;;;5133534;28;20163;-83
2022/12/31 09:18:23;;;;;;;7.67;2.03;;;14.50;99.90;;;;;;5135030;27;20510;-83
2022/12/31 09:20:49;;;;;;;3.57;2.20;;;14.60;99.90;;;;;;5134725;28;20183;-82
2022/12/31 09:23:15;;;;;;;2.10;1.40;;;14.70;99.90;;;;;;5134525;27;20279;-84
2022/12/31 09:26:05;;;;;;;1.70;1.30;;;15.00;99.90;;;;;;5135101;27;20385;-83
2022/12/31 09:28:56;;;;;;;1.70;1.60;;;15.60;99.90;;;;;;5134725;28;20191;-82
2022/12/31 09:31:48;;;;;;;1.80;1.40;;;16.30;99.90;;;;;;5133290;28;20497;-84
2022/12/31 09:34:19;;;;;;;1.50;1.40;;;16.60;99.90;;;;;;5133287;28;20208;-82
2022/12/31 09:36:53;;;;;;;1.47;1.30;;;16.60;99.90;;;;;;5121104;28;20177;-83
2022/12/31 09:39:41;;;;;;;1.37;1.20;;;16.80;99.90;;;;;;5120039;28;20193;-83
2022/12/31 09:42:25;;;;;;;1.53;1.40;;;17.00;99.90;;;;;;5122875;28;20192;-84
2022/12/31 09:44:54;;;;;;;2.27;1.13;;;17.10;99.90;;;;;;5123305;28;20657;-83
2022/12/31 09:47:45;;;;;;;1.30;1.20;;;17.40;99.90;;;;;;5124603;28;20170;-84
2022/12/31 09:50:32;;;;;;;1.23;1.13;;;17.70;99.90;;;;;;5124332;28;20198;-83
2022/12/31 09:53:17;;;;;;;1.50;1.30;;;17.80;99.90;;;;;;5126444;28;20161;-83
2022/12/31 09:56:17;;;;;;;1.43;1.20;;;17.90;99.90;;;;;;5135618;28;20167;-83
2022/12/31 09:58:58;;;;;;;1.40;1.30;;;18.20;99.90;;;;;;5126050;28;20200;-83
2022/12/31 10:01:36;;;;;;;1.10;1.00;;;18.60;99.90;;;;;;5119682;28;20171;-83
2022/12/31 10:04:02;;;;;;;1.67;1.00;;;18.90;99.90;;;;;;5119827;28;20191;-83
2022/12/31 10:06:38;;;;;;;1.27;0.90;;;19.40;99.90;;;;;;5119947;28;20511;-83
2022/12/31 10:09:16;;;;;;;0.90;0.80;;;19.80;99.90;;;;;;5119613;28;20191;-83
2022/12/31 10:12:03;;;;;;;1.57;1.10;;;20.00;99.90;;;;;;5119747;28;20163;-83
2022/12/31 10:15:02;;;;;;;1.50;0.80;;;20.30;99.90;;;;;;5119845;28;20168;-83
2022/12/31 10:17:58;;;;;;;0.77;0.70;;;20.40;99.90;;;;;;5121337;28;20161;-82
2022/12/31 10:20:35;;;;;;;0.60;0.60;;;20.50;99.90;;;;;;5121010;28;20284;-83
2022/12/31 10:23:28;;;;;;;0.97;0.60;;;20.30;99.90;;;;;;5121108;27;20192;-85
2022/12/31 10:26:15;;;;;;;1.17;0.73;;;20.10;99.90;;;;;;5123448;28;20160;-83
2022/12/31 10:29:07;;;;;;;1.10;0.90;;;20.40;99.90;;;;;;5124152;28;20596;-82
2022/12/31 10:31:44;;;;;;;0.93;0.70;;;20.10;99.40;;;;;;5118392;28;20164;-84
2022/12/31 10:34:23;;;;;;;0.43;0.43;;;20.20;99.90;;;;;;5119977;28;20160;-85
2022/12/31 10:37:05;;;;;;;0.63;0.63;;;20.00;99.80;;;;;;5117811;28;20168;-85
2022/12/31 10:39:54;;;;;;;0.53;0.53;;;19.90;99.90;;;;;;5117057;28;20200;-85
2022/12/31 10:42:44;;;;;;;1.00;0.80;;;20.20;99.00;;;;;;5119670;28;20164;-83
2022/12/31 10:45:37;;;;;;;2.60;0.70;;;20.20;98.80;;;;;;5117654;28;20182;-83
2022/12/31 10:48:41;;;;;;;1.03;0.80;;;19.50;99.10;;;;;;5117099;28;20301;-84
2022/12/31 10:51:06;;;;;;;0.60;0.60;;;19.10;99.50;;;;;;5120541;28;20220;-83
2022/12/31 10:53:41;;;;;;;1.03;0.77;;;18.70;99.90;;;;;;5120312;28;20168;-83
2022/12/31 10:56:44;;;;;;;0.83;0.80;;;18.40;99.90;;;;;;5118074;28;20199;-83
2022/12/31 10:59:48;;;;;;;0.70;0.70;;;18.10;99.90;;;;;;5119554;28;20231;-83
2022/12/31 11:03:01;;;;;;;0.90;0.70;;;17.90;99.90;;;;;;5118157;28;20567;-82
2022/12/31 11:06:15;;;;;;;1.13;0.90;;;17.80;99.90;;;;;;5082362;28;20329;-84
2022/12/31 11:08:59;;;;;;;1.93;1.40;;;17.80;99.90;;;;;;5101151;28;20290;-83
2022/12/31 11:11:43;;;;;;;1.33;1.20;;;17.80;99.90;;;;;;5121581;28;20187;-81
2022/12/31 11:14:20;;;;;;;1.53;1.00;;;17.80;99.90;;;;;;5121330;28;20196;-85
2022/12/31 11:17:12;;;;;;;2.10;1.00;;;17.90;99.90;;;;;;5120523;28;20184;-82
2022/12/31 11:19:43;;;;;;;2.30;1.27;;;18.20;99.90;;;;;;5111823;28;20198;-82
2022/12/31 11:22:27;;;;;;;1.00;0.90;;;19.10;99.90;;;;;;5120180;28;20209;-82
2022/12/31 11:25:11;;;;;;;2.40;0.83;;;20.10;99.90;;;;;;5121415;28;20214;-82
2022/12/31 11:27:40;;;;;;;1.43;0.73;;;20.80;99.90;;;;;;5121444;28;20156;-83
2022/12/31 11:30:31;;;;;;;0.90;0.80;;;21.20;99.80;;;;;;5121638;28;20187;-83
2022/12/31 11:33:00;;;;;;;1.53;1.00;;;21.40;98.50;;;;;;5123330;28;20203;-84
2022/12/31 11:35:43;;;;;;;1.43;1.07;;;21.60;98.80;;;;;;5122416;28;20214;-84
2022/12/31 11:38:26;;;;;;;2.50;0.80;;;22.00;98.70;;;;;;5122613;28;20172;-83
2022/12/31 11:41:22;;;;;;;3.90;1.33;;;22.00;96.80;;;;;;5123455;28;20652;-83
2022/12/31 11:44:26;;;;;;;0.80;0.60;;;22.00;97.80;;;;;;5094150;28;20203;-83
2022/12/31 11:47:43;;;;;;;0.60;0.60;;;22.10;97.10;;;;;;5108895;28;20177;-84
2022/12/31 11:50:11;;;;;;;0.97;0.57;;;22.10;93.90;;;;;;5060713;28;20215;-83
2022/12/31 11:53:12;;;;;;;0.67;0.60;;;21.70;93.50;;;;;;5108525;28;20659;-83
2022/12/31 11:56:11;;;;;;;0.70;0.60;;;22.00;94.20;;;;;;5121450;28;20188;-83
2022/12/31 11:58:40;;;;;;;1.30;0.70;;;21.90;94.90;;;;;;5106289;28;20206;-83
2022/12/31 12:01:25;;;;;;;1.20;1.00;;;22.10;92.80;;;;;;5119475;28;20168;-83
2022/12/31 12:03:51;;;;;;;1.00;0.60;;;22.10;94.70;;;;;;5120901;28;20199;-84
2022/12/31 12:06:23;;;;;;;0.83;0.70;;;22.20;92.10;;;;;;5120991;28;20505;-83
2022/12/31 12:08:55;;;;;;;1.30;0.70;;;22.20;94.20;;;;;;5119717;28;20592;-84
2022/12/31 12:11:24;;;;;;;1.40;0.73;;;21.70;94.50;;;;;;5120395;28;20181;-84
2022/12/31 12:13:50;;;;;;;0.70;0.70;;;21.30;94.90;;;;;;5120854;28;20184;-83
2022/12/31 12:16:19;;;;;;;1.10;1.00;;;21.20;95.80;;;;;;5119673;28;20185;-83
2022/12/31 12:18:48;;;;;;;2.63;0.77;;;20.90;95.50;;;;;;5122089;28;20199;-83
2022/12/31 12:21:19;;;;;;;1.00;0.73;;;20.60;95.90;;;;;;5120724;28;20184;-83
2022/12/31 12:23:56;;;;;;;1.83;0.83;;;20.50;97.20;;;;;;5119245;28;20678;-82
2022/12/31 12:26:48;;;;;;;2.47;0.90;;;20.30;96.70;;;;;;5120581;28;20167;-82
2022/12/31 12:29:18;;;;;;;1.10;0.80;;;20.00;96.10;;;;;;5118779;28;20290;-82
2022/12/31 12:31:54;;;;;;;0.87;0.60;;;19.70;97.60;;;;;;5130567;28;20668;-82
2022/12/31 12:34:31;;;;;;;1.47;0.90;;;19.60;97.20;;;;;;5118077;28;20172;-81
2022/12/31 12:36:57;;;;;;;2.00;1.20;;;19.40;98.10;;;;;;5116401;28;20171;-81
2022/12/31 12:39:29;;;;;;;8.43;2.27;;;19.20;97.80;;;;;;5118649;28;20191;-82
2022/12/31 12:42:13;;;;;;;21.27;2.77;;;19.00;98.20;;;;;;5120900;28;20224;-83
2022/12/31 12:44:40;;;;;;;11.30;1.30;;;18.80;97.70;;;;;;5122191;28;20695;-82
2022/12/31 12:47:13;;;;;;;1.70;1.00;;;18.60;98.00;;;;;;5125345;28;20185;-82
2022/12/31 12:49:45;;;;;;;1.77;1.10;;;18.40;98.10;;;;;;5133570;28;20236;-83
2022/12/31 12:52:46;;;;;;;2.60;0.70;;;18.20;98.00;;;;;;5130354;28;20179;-84
2022/12/31 12:56:09;;;;;;;1.03;0.93;;;18.20;98.70;;;;;;5120272;28;20189;-82
2022/12/31 12:59:13;;;;;;;1.20;0.90;;;18.20;98.60;;;;;;5062128;28;20243;-84
2022/12/31 13:01:56;;;;;;;1.70;1.20;;;18.00;97.90;;;;;;5034379;28;20242;-81
2022/12/31 13:04:46;;;;;;;0.70;0.70;;;17.90;98.70;;;;;;5120377;28;20215;-82
2022/12/31 13:07:23;;;;;;;0.70;0.70;;;17.80;98.50;;;;;;5122572;28;20267;-82
2022/12/31 13:09:56;;;;;;;1.23;0.70;;;17.80;98.00;;;;;;5122203;28;20192;-82
2022/12/31 13:12:35;;;;;;;0.93;0.80;;;17.70;98.20;;;;;;5125277;28;20633;-82
2022/12/31 13:15:13;;;;;;;0.47;0.47;;;17.70;97.60;;;;;;5125358;28;20182;-82
2022/12/31 13:17:54;;;;;;;0.90;0.70;;;17.60;98.00;;;;;;5126674;27;20183;-83
2022/12/31 13:20:22;;;;;;;0.63;0.60;;;17.60;97.70;;;;;;5127510;28;20251;-83
2022/12/31 13:23:01;;;;;;;0.80;0.70;;;17.50;97.70;;;;;;5125577;28;20175;-82
2022/12/31 13:25:45;;;;;;;1.43;0.90;;;17.40;98.20;;;;;;5125790;28;20637;-82
2022/12/31 13:28:14;;;;;;;1.50;1.23;;;17.30;97.40;;;;;;5123923;28;20198;-83
2022/12/31 13:30:47;;;;;;;1.10;1.00;;;17.20;97.50;;;;;;5124292;28;20179;-81
2022/12/31 13:33:19;;;;;;;0.70;0.70;;;17.10;98.10;;;;;;5123190;28;20259;-81
2022/12/31 13:35:48;;;;;;;0.70;0.70;;;17.10;98.60;;;;;;5125223;28;20177;-82
2022/12/31 13:38:27;;;;;;;0.70;0.70;;;17.00;97.90;;;;;;5125467;28;20193;-82
2022/12/31 13:40:55;;;;;;;1.90;0.73;;;16.90;99.90;;;;;;5124380;28;20164;-82
2022/12/31 13:43:33;;;;;;;0.80;0.70;;;16.90;99.80;;;;;;5124800;28;20194;-82
2022/12/31 13:46:08;;;;;;;1.10;0.73;;;16.90;99.10;;;;;;5124592;28;20207;-82
2022/12/31 13:48:41;;;;;;;1.20;1.10;;;16.80;99.40;;;;;;5126725;28;20236;-82
2022/12/31 13:51:21;;;;;;;4.37;1.50;;;16.70;99.90;;;;;;5126500;28;20163;-83
2022/12/31 13:53:58;;;;;;;3.00;1.03;;;16.60;99.90;;;;;;5123017;28;20171;-84
2022/12/31 13:56:30;;;;;;;0.90;0.80;;;16.50;99.90;;;;;;5123458;28;20193;-82
2022/12/31 13:59:14;;;;;;;1.57;0.90;;;16.40;99.90;;;;;;5126350;28;20278;-82
2022/12/31 14:01:50;;;;;;;2.93;1.13;;;16.30;99.90;;;;;;5124228;28;20166;-82
2022/12/31 14:04:25;;;;;;;4.60;1.67;;;16.20;99.90;;;;;;5123856;28;20209;-82
2022/12/31 14:07:14;;;;;;;6.60;2.33;;;16.10;99.90;;;;;;5124516;28;20248;-82
2022/12/31 14:09:40;;;;;;;6.17;3.53;;;16.00;99.90;;;;;;5124767;28;20191;-82
2022/12/31 14:12:29;;;;;;;5.23;3.20;;;15.90;99.90;;;;;;5125857;28;20176;-83
2022/12/31 14:15:13;;;;;;;5.73;3.00;;;15.70;99.90;;;;;;5125895;28;20171;-82
2022/12/31 14:17:46;;;;;;;4.50;2.90;;;15.60;99.90;;;;;;5127881;28;20167;-82
2022/12/31 14:20:40;;;;;;;8.57;3.23;;;15.60;99.90;;;;;;5132190;28;20200;-82
2022/12/31 14:23:34;;;;;;;8.70;3.10;;;15.50;99.90;;;;;;5140151;28;20180;-82
2022/12/31 14:26:11;;;;;;;6.07;2.80;;;15.30;99.90;;;;;;5124009;28;20182;-82
2022/12/31 14:29:11;;;;;;;3.97;2.23;;;15.20;99.90;;;;;;5123636;28;20186;-82
2022/12/31 14:32:11;;;;;;;2.87;2.00;;;15.10;99.90;;;;;;5121084;28;20175;-82
2022/12/31 14:34:48;;;;;;;6.93;3.43;;;15.00;99.90;;;;;;5122033;28;20190;-82
2022/12/31 14:37:15;;;;;;;8.30;3.37;;;14.80;99.90;;;;;;5124519;28;20164;-82
2022/12/31 14:40:11;;;;;;;7.20;3.77;;;14.70;99.90;;;;;;5120587;28;20198;-82
2022/12/31 14:43:15;;;;;;;5.77;3.23;;;14.70;99.90;;;;;;5120275;28;20175;-82
2022/12/31 14:46:14;;;;;;;7.10;3.20;;;14.70;99.90;;;;;;5120316;28;20225;-81
2022/12/31 14:49:02;;;;;;;6.17;4.00;;;14.60;99.90;;;;;;5122982;28;20187;-85
2022/12/31 14:51:29;;;;;;;5.27;3.30;;;14.40;99.90;;;;;;5125147;28;20179;-81
2022/12/31 14:53:57;;;;;;;6.67;3.97;;;14.30;99.90;;;;;;5121181;28;20224;-81
2022/12/31 14:56:30;;;;;;;4.67;3.47;;;14.20;99.90;;;;;;5121053;28;20199;-81
2022/12/31 14:59:01;;;;;;;9.33;4.83;;;14.20;99.90;;;;;;5120867;28;20195;-81
2022/12/31 15:01:27;;;;;;;7.17;4.10;;;14.10;99.90;;;;;;5120663;28;20254;-81
2022/12/31 15:03:56;;;;;;;10.00;5.07;;;14.00;99.90;;;;;;5119818;28;20195;-80
2022/12/31 15:06:22;;;;;;;13.13;5.83;;;13.90;99.90;;;;;;5120132;28;20178;-81
2022/12/31 15:08:54;;;;;;;16.93;7.23;;;13.80;99.90;;;;;;5119498;28;20214;-81
2022/12/31 15:11:47;;;;;;;9.40;5.30;;;13.70;99.90;;;;;;5120615;28;20167;-81
2022/12/31 15:14:32;;;;;;;18.33;10.33;;;13.60;99.90;;;;;;5119945;28;20621;-80
2022/12/31 15:17:23;;;;;;;11.37;7.17;;;13.40;99.90;;;;;;5117929;28;20172;-80
2022/12/31 15:20:03;;;;;;;8.73;6.03;;;13.20;99.90;;;;;;5118333;28;20195;-80
2022/12/31 15:22:47;;;;;;;9.63;5.93;;;13.10;99.90;;;;;;5119416;28;20197;-80
2022/12/31 15:25:33;;;;;;;13.03;5.70;;;13.00;99.90;;;;;;5118721;28;20240;-81
2022/12/31 15:28:05;;;;;;;10.47;5.83;;;12.90;99.90;;;;;;5119992;28;20159;-80
2022/12/31 15:30:43;;;;;;;12.27;6.93;;;12.80;99.90;;;;;;5119495;28;20191;-81
2022/12/31 15:33:37;;;;;;;13.53;6.07;;;12.60;99.90;;;;;;5117772;28;20623;-81
2022/12/31 15:36:19;;;;;;;17.47;7.97;;;12.50;99.90;;;;;;5120014;27;20190;-81
2022/12/31 15:38:45;;;;;;;15.83;10.53;;;12.40;99.90;;;;;;5119859;28;20192;-80
2022/12/31 15:41:36;;;;;;;19.83;10.83;;;12.20;99.90;;;;;;5119594;28;20176;-81
2022/12/31 15:44:15;;;;;;;18.43;10.97;;;12.10;99.90;;;;;;5103041;28;20211;-81
2022/12/31 15:46:42;;;;;;;22.03;13.57;;;12.00;99.90;;;;;;5119889;28;20628;-81
2022/12/31 15:49:18;;;;;;;20.20;12.03;;;11.90;99.90;;;;;;5123186;28;20187;-81
2022/12/31 15:51:58;;;;;;;18.00;13.27;;;11.80;99.90;;;;;;5121211;28;20178;-80
2022/12/31 15:54:35;;;;;;;19.33;13.47;;;11.80;99.90;;;;;;5121922;28;20167;-80
2022/12/31 15:57:01;;;;;;;25.43;15.63;;;11.60;99.90;;;;;;5120985;28;20239;-81
2022/12/31 15:59:27;;;;;;;31.53;20.93;;;11.50;99.90;;;;;;5124053;28;20191;-81
2022/12/31 16:01:55;;;;;;;27.30;19.13;;;11.40;99.90;;;;;;5122575;28;20178;-83
2022/12/31 16:04:24;;;;;;;29.13;19.60;;;11.30;99.90;;;;;;5122786;28;20252;-82
2022/12/31 16:06:50;;;;;;;31.77;20.70;;;11.20;99.90;;;;;;5120492;28;20178;-81
2022/12/31 16:09:22;;;;;;;22.57;14.43;;;11.10;99.90;;;;;;5120907;28;20187;-82
2022/12/31 16:11:48;;;;;;;28.83;17.37;;;11.10;99.90;;;;;;5127010;28;20198;-81
2022/12/31 16:14:38;;;;;;;26.17;17.73;;;11.00;99.90;;;;;;5131267;28;20163;-81
2022/12/31 16:17:04;;;;;;;26.23;16.83;;;11.00;99.90;;;;;;5123972;28;20200;-81
2022/12/31 16:19:35;;;;;;;29.97;16.80;;;11.00;99.90;;;;;;5118606;28;20635;-81
2022/12/31 16:22:11;;;;;;;27.93;18.13;;;10.90;99.90;;;;;;5118938;28;20164;-81
2022/12/31 16:24:37;;;;;;;28.83;16.53;;;10.90;99.90;;;;;;5119471;28;20230;-81
2022/12/31 16:27:11;;;;;;;27.00;17.63;;;10.80;99.90;;;;;;5120592;28;20164;-81
2022/12/31 16:29:43;;;;;;;24.77;15.57;;;10.80;99.90;;;;;;5120604;28;20179;-81
2022/12/31 16:32:17;;;;;;;34.37;19.10;;;10.70;99.90;;;;;;5118852;28;20168;-81
2022/12/31 16:34:43;;;;;;;26.40;17.10;;;10.70;99.90;;;;;;5120166;28;20638;-82
2022/12/31 16:37:21;;;;;;;40.03;23.50;;;10.60;99.90;;;;;;5120389;28;20174;-81
2022/12/31 16:39:56;;;;;;;38.17;21.10;;;10.60;99.90;;;;;;5118474;28;20559;-81
2022/12/31 16:42:23;;;;;;;25.37;13.80;;;10.50;99.90;;;;;;5118480;28;20178;-81
2022/12/31 16:44:50;;;;;;;76.07;44.00;;;10.50;99.90;;;;;;5120891;28;20680;-81
2022/12/31 16:47:26;;;;;;;77.93;44.73;;;10.50;99.90;;;;;;5124523;28;20198;-81
2022/12/31 16:50:20;;;;;;;92.60;54.37;;;10.50;99.90;;;;;;5123178;28;20196;-84
2022/12/31 16:53:01;;;;;;;51.77;30.30;;;10.40;99.90;;;;;;5123124;28;20182;-82
2022/12/31 16:55:29;;;;;;;20.80;10.93;;;10.40;99.90;;;;;;5123421;28;20180;-82
2022/12/31 16:58:00;;;;;;;20.93;13.23;;;10.50;99.90;;;;;;5125628;28;20223;-83
2022/12/31 17:00:26;;;;;;;247.00;130.47;;;10.50;99.90;;;;;;5125141;28;20200;-84
2022/12/31 17:03:06;;;;;;;12.17;8.73;;;10.60;99.90;;;;;;5124151;28;20659;-83
2022/12/31 17:05:35;;;;;;;53.53;30.87;;;10.60;99.90;;;;;;5125192;28;20192;-81
2022/12/31 17:08:22;;;;;;;125.80;37.40;;;10.60;99.90;;;;;;5127450;28;20176;-83
